createdAt,value
2022-10-13T00:01:13.163Z,102055.06
2022-10-13T00:03:40.407Z,102049.78
2022-10-13T00:06:08.022Z,102045.19
2022-10-13T00:08:34.983Z,102044.34
2022-10-13T00:11:01.431Z,102047.06
2022-10-13T00:13:28.537Z,102054.38
2022-10-13T00:15:54.871Z,102050.63
2022-10-13T00:18:21.228Z,102053.38
2022-10-13T00:20:48.979Z,102048.75
2022-10-13T00:23:16.001Z,102037.00
2022-10-13T00:25:47.032Z,102033.44
2022-10-13T00:28:14.922Z,102027.13
2022-10-13T00:30:41.704Z,102026.28
2022-10-13T00:33:09.035Z,102027.13
2022-10-13T00:35:39.877Z,102039.91
2022-10-13T00:38:06.244Z,102038.03
2022-10-13T00:40:32.586Z,102038.88
2022-10-13T00:42:59.181Z,102026.09
2022-10-13T00:45:26.965Z,102032.56
2022-10-13T00:47:56.191Z,102031.56
2022-10-13T00:50:52.113Z,102023.53
2022-10-13T00:53:21.768Z,102033.59
2022-10-13T00:55:48.562Z,102036.16
2022-10-13T00:58:16.655Z,102030.69
2022-10-13T01:00:48.218Z,102030.00
2022-10-13T01:03:14.782Z,102022.69
2022-10-13T01:05:42.016Z,102025.41
2022-10-13T01:08:09.999Z,102022.69
2022-10-13T01:10:36.387Z,102023.53
2022-10-13T01:13:17.688Z,102027.13
2022-10-13T01:15:44.023Z,102027.13
2022-10-13T01:18:10.348Z,102029.84
2022-10-13T01:20:42.936Z,102022.53
2022-10-13T01:23:15.628Z,102020.81
2022-10-13T01:26:07.589Z,102019.09
2022-10-13T01:28:54.168Z,102012.78
2022-10-13T01:31:25.497Z,102011.06
2022-10-13T01:33:57.831Z,102011.94
2022-10-13T01:36:29.580Z,102009.06
2022-10-13T01:38:58.908Z,102005.47
2022-10-13T01:41:31.566Z,102007.34
2022-10-13T01:44:03.248Z,102007.34
2022-10-13T01:46:32.406Z,102002.72
2022-10-13T01:49:01.422Z,102000.88
2022-10-13T01:51:29.267Z,102002.72
2022-10-13T01:53:55.606Z,101988.25
2022-10-13T01:56:21.981Z,101991.81
2022-10-13T01:58:49.876Z,101998.16
2022-10-13T02:01:22.394Z,101990.84
2022-10-13T02:03:48.736Z,101982.81
2022-10-13T02:06:22.720Z,101985.53
2022-10-13T02:08:58.244Z,101986.38
2022-10-13T02:11:25.428Z,101985.53
2022-10-13T02:14:00.017Z,101980.94
2022-10-13T02:16:31.310Z,101976.50
2022-10-13T02:18:58.270Z,101968.31
2022-10-13T02:21:25.243Z,101967.47
2022-10-13T02:23:51.785Z,101970.91
2022-10-13T02:26:18.658Z,101971.03
2022-10-13T02:28:45.047Z,101968.31
2022-10-13T02:31:11.435Z,101965.59
2022-10-13T02:33:37.846Z,101967.47
2022-10-13T02:36:04.293Z,101959.28
2022-10-13T02:38:30.955Z,101962.88
2022-10-13T02:40:57.486Z,101965.59
2022-10-13T02:43:23.812Z,101962.03
2022-10-13T02:45:50.174Z,101956.56
2022-10-13T02:48:16.499Z,101959.13
2022-10-13T02:50:42.858Z,101955.72
2022-10-13T02:53:09.203Z,101949.25
2022-10-13T02:55:35.555Z,101950.09
2022-10-13T02:58:01.944Z,101945.66
2022-10-13T03:00:28.397Z,101941.25
2022-10-13T03:02:54.899Z,101936.63
2022-10-13T03:05:21.294Z,101942.09
2022-10-13T03:07:47.628Z,101947.53
2022-10-13T03:10:13.972Z,101942.94
2022-10-13T03:12:40.327Z,101938.34
2022-10-13T03:15:06.984Z,101945.66
2022-10-13T03:17:33.331Z,101938.34
2022-10-13T03:19:59.919Z,101927.63
2022-10-13T03:22:26.371Z,101924.72
2022-10-13T03:24:52.753Z,101922.16
2022-10-13T03:27:19.109Z,101918.59
2022-10-13T03:29:45.441Z,101919.44
2022-10-13T03:32:11.809Z,101919.44
2022-10-13T03:34:38.247Z,101909.38
2022-10-13T03:37:04.880Z,101908.53
2022-10-13T03:39:31.267Z,101911.25
2022-10-13T03:41:57.607Z,101905.81
2022-10-13T03:44:24.124Z,101906.66
2022-10-13T03:46:50.525Z,101904.94
2022-10-13T03:49:18.753Z,101902.22
2022-10-13T03:51:45.532Z,101904.78
2022-10-13T03:54:12.705Z,101903.94
2022-10-13T03:56:39.430Z,101890.31
2022-10-13T03:59:05.895Z,101893.03
2022-10-13T04:01:32.963Z,101887.75
2022-10-13T04:04:00.125Z,101890.47
2022-10-13T04:06:26.768Z,101888.59
2022-10-13T04:08:53.222Z,101885.88
2022-10-13T04:11:19.994Z,101886.88
2022-10-13T04:13:46.485Z,101888.59
2022-10-13T04:16:14.802Z,101884.16
2022-10-13T04:18:44.428Z,101886.72
2022-10-13T04:21:14.838Z,101889.44
2022-10-13T04:23:41.591Z,101886.72
2022-10-13T04:26:14.594Z,101884.16
2022-10-13T04:28:41.007Z,101883.16
2022-10-13T04:31:07.403Z,101878.69
2022-10-13T04:33:33.825Z,101875.13
2022-10-13T04:36:03.197Z,101872.25
2022-10-13T04:38:29.570Z,101885.03
2022-10-13T04:40:55.935Z,101882.44
2022-10-13T04:43:22.264Z,101882.31
2022-10-13T04:45:48.624Z,101873.25
2022-10-13T04:48:15.107Z,101876.84
2022-10-13T04:50:41.525Z,101876.84
2022-10-13T04:53:07.912Z,101874.13
2022-10-13T04:55:37.299Z,101874.97
2022-10-13T04:58:03.747Z,101869.66
2022-10-13T05:00:30.164Z,101872.25
2022-10-13T05:02:56.558Z,101865.06
2022-10-13T05:05:23.051Z,101865.06
2022-10-13T05:07:49.441Z,101863.22
2022-10-13T05:10:15.922Z,101861.50
2022-10-13T05:12:42.328Z,101854.16
2022-10-13T05:15:08.889Z,101854.16
2022-10-13T05:17:35.709Z,101853.31
2022-10-13T05:20:02.332Z,101855.03
2022-10-13T05:22:28.760Z,101853.19
2022-10-13T05:24:55.154Z,101848.72
2022-10-13T05:27:23.096Z,101844.28
2022-10-13T05:29:49.462Z,101842.41
2022-10-13T05:32:16.106Z,101838.84
2022-10-13T05:34:42.465Z,101840.72
2022-10-13T05:37:08.818Z,101833.38
2022-10-13T05:39:35.836Z,101837.81
2022-10-13T05:42:02.183Z,101835.25
2022-10-13T05:44:28.588Z,101841.56
2022-10-13T05:46:54.990Z,101843.44
2022-10-13T05:49:21.372Z,101832.53
2022-10-13T05:51:48.847Z,101832.53
2022-10-13T05:54:18.043Z,101830.84
2022-10-13T05:57:04.771Z,101833.38
2022-10-13T05:59:34.528Z,101826.22
2022-10-13T06:02:01.906Z,101826.22
2022-10-13T06:04:38.002Z,101828.09
2022-10-13T06:07:04.663Z,101827.25
2022-10-13T06:09:35.967Z,101820.78
2022-10-13T06:12:02.297Z,101818.25
2022-10-13T06:14:28.672Z,101827.25
2022-10-13T06:16:55.043Z,101827.25
2022-10-13T06:19:21.585Z,101819.94
2022-10-13T06:21:47.945Z,101821.81
2022-10-13T06:24:14.333Z,101833.56
2022-10-13T06:26:41.232Z,101825.38
2022-10-13T06:29:07.681Z,101827.25
2022-10-13T06:31:34.071Z,101833.56
2022-10-13T06:34:00.433Z,101830.84
2022-10-13T06:36:26.854Z,101830.84
2022-10-13T06:38:53.223Z,101840.88
2022-10-13T06:41:19.946Z,101833.56
2022-10-13T06:43:46.356Z,101836.28
2022-10-13T06:46:12.775Z,101844.47
2022-10-13T06:48:39.574Z,101843.59
2022-10-13T06:51:07.301Z,101841.75
2022-10-13T06:53:33.956Z,101835.44
2022-10-13T06:56:00.898Z,101842.75
2022-10-13T06:58:27.833Z,101839.00
2022-10-13T07:00:54.583Z,101849.91
2022-10-13T07:03:21.150Z,101844.47
2022-10-13T07:05:47.542Z,101850.75
2022-10-13T07:08:13.888Z,101836.28
2022-10-13T07:10:40.882Z,101831.88
2022-10-13T07:13:07.237Z,101838.31
2022-10-13T07:15:34.047Z,101838.31
2022-10-13T07:18:00.421Z,101840.88
2022-10-13T07:20:26.762Z,101839.16
2022-10-13T07:22:53.465Z,101832.84
2022-10-13T07:25:19.839Z,101829.28
2022-10-13T07:27:46.260Z,101821.09
2022-10-13T07:30:13.107Z,101830.97
2022-10-13T07:32:41.971Z,101823.69
2022-10-13T07:35:09.605Z,101818.38
2022-10-13T07:37:36.264Z,101815.66
2022-10-13T07:40:03.319Z,101801.19
2022-10-13T07:42:29.669Z,101807.66
2022-10-13T07:44:56.037Z,101814.81
2022-10-13T07:47:22.630Z,101821.09
2022-10-13T07:49:49.171Z,101817.53
2022-10-13T07:52:15.546Z,101813.09
2022-10-13T07:54:41.992Z,101804.94
2022-10-13T07:57:09.086Z,101803.06
2022-10-13T07:59:35.431Z,101804.06
2022-10-13T08:02:02.021Z,101804.75
2022-10-13T08:04:32.061Z,101804.75
2022-10-13T08:06:58.992Z,101802.03
2022-10-13T08:09:26.246Z,101800.16
2022-10-13T08:11:53.965Z,101799.47
2022-10-13T08:14:21.981Z,101801.88
2022-10-13T08:16:51.294Z,101796.44
2022-10-13T08:19:22.119Z,101800.16
2022-10-13T08:22:09.099Z,101793.72
2022-10-13T08:24:35.452Z,101793.72
2022-10-13T08:27:01.842Z,101791.84
2022-10-13T08:29:28.441Z,101787.22
2022-10-13T08:31:55.122Z,101784.50
2022-10-13T08:34:25.015Z,101784.34
2022-10-13T08:36:54.178Z,101784.34
2022-10-13T08:39:21.013Z,101777.00
2022-10-13T08:41:47.554Z,101781.47
2022-10-13T08:44:56.684Z,101775.00
2022-10-13T08:47:06.353Z,101768.69
2022-10-13T08:49:32.795Z,101764.09
2022-10-13T08:52:03.085Z,101764.09
2022-10-13T08:54:29.511Z,101763.22
2022-10-13T08:56:55.937Z,101761.34
2022-10-13T08:59:22.460Z,101757.78
2022-10-13T09:01:52.356Z,101755.91
2022-10-13T09:04:27.790Z,101756.75
2022-10-13T09:07:09.452Z,101751.31
2022-10-13T09:09:36.502Z,101751.31
2022-10-13T09:12:03.438Z,101761.34
2022-10-13T09:14:31.750Z,101748.59
2022-10-13T09:17:12.767Z,101750.28
2022-10-13T09:19:40.821Z,101754.69
2022-10-13T09:22:36.681Z,101754.69
2022-10-13T09:25:11.878Z,101758.31
2022-10-13T09:27:47.316Z,101751.97
2022-10-13T09:30:29.072Z,101746.53
2022-10-13T09:33:04.561Z,101741.97
2022-10-13T09:35:34.315Z,101747.41
2022-10-13T09:38:04.390Z,101745.53
2022-10-13T09:40:32.334Z,101742.81
2022-10-13T09:42:59.993Z,101737.34
2022-10-13T09:45:26.748Z,101747.22
2022-10-13T09:47:58.857Z,101740.75
2022-10-13T09:50:27.106Z,101736.34
2022-10-13T09:52:53.990Z,101737.19
2022-10-13T09:55:32.392Z,101738.22
2022-10-13T09:58:17.819Z,101728.16
2022-10-13T10:00:45.064Z,101721.84
2022-10-13T10:03:29.637Z,101719.97
2022-10-13T10:06:04.095Z,101721.84
2022-10-13T10:08:57.926Z,101726.47
2022-10-13T10:11:35.287Z,101728.16
2022-10-13T10:14:10.024Z,101736.34
2022-10-13T10:16:41.585Z,101737.19
2022-10-13T10:19:29.050Z,101740.09
2022-10-13T10:22:04.453Z,101733.59
2022-10-13T10:24:37.738Z,101730.03
2022-10-13T10:27:12.094Z,101736.16
2022-10-13T10:29:41.271Z,101732.56
2022-10-13T10:32:20.104Z,101733.44
2022-10-13T10:34:50.199Z,101720.66
2022-10-13T10:37:25.156Z,101727.97
2022-10-13T10:40:11.786Z,101715.19
2022-10-13T10:42:52.392Z,101719.81
2022-10-13T10:45:21.801Z,101718.09
2022-10-13T10:47:50.637Z,101713.50
2022-10-13T10:50:18.017Z,101708.03
2022-10-13T10:52:59.673Z,101698.00
2022-10-13T10:55:26.006Z,101697.16
2022-10-13T10:58:07.638Z,101690.84
2022-10-13T11:00:38.808Z,101681.81
2022-10-13T11:03:17.504Z,101679.94
2022-10-13T11:06:04.565Z,101682.50
2022-10-13T11:08:40.034Z,101678.06
2022-10-13T11:11:32.288Z,101680.78
2022-10-13T11:14:07.732Z,101670.91
2022-10-13T11:16:35.280Z,101660.00
2022-10-13T11:19:21.915Z,101663.59
2022-10-13T11:21:57.935Z,101668.00
2022-10-13T11:24:33.528Z,101650.81
2022-10-13T11:27:20.155Z,101648.09
2022-10-13T11:29:46.678Z,101649.97
2022-10-13T11:32:25.710Z,101639.06
2022-10-13T11:34:57.883Z,101630.88
2022-10-13T11:37:26.002Z,101629.84
2022-10-13T11:40:01.107Z,101630.88
2022-10-13T11:42:55.566Z,101635.31
2022-10-13T11:45:24.888Z,101630.69
2022-10-13T11:48:03.593Z,101625.44
2022-10-13T11:50:48.945Z,101623.56
2022-10-13T11:53:19.094Z,101625.44
2022-10-13T11:55:50.965Z,101630.03
2022-10-13T11:58:23.538Z,101629.00
2022-10-13T12:01:12.308Z,101641.78
2022-10-13T12:03:43.396Z,101639.75
2022-10-13T12:06:15.831Z,101635.31
2022-10-13T12:08:45.453Z,101628.16
2022-10-13T12:11:23.164Z,101630.69
2022-10-13T12:13:49.739Z,101619.81
2022-10-13T12:16:16.229Z,101616.09
2022-10-13T12:18:42.573Z,101614.34
2022-10-13T12:21:10.741Z,101606.16
2022-10-13T12:23:37.197Z,101608.75
2022-10-13T12:26:04.000Z,101607.06
2022-10-13T12:28:50.287Z,101598.00
2022-10-13T12:31:18.414Z,101604.31
2022-10-13T12:33:53.313Z,101599.03
2022-10-13T12:36:21.399Z,101591.69
2022-10-13T12:38:51.937Z,101601.59
2022-10-13T12:41:22.868Z,101596.16
2022-10-13T12:43:50.136Z,101602.44
2022-10-13T12:46:35.943Z,101605.19
2022-10-13T12:49:06.427Z,101597.16
2022-10-13T12:51:33.890Z,101604.31
2022-10-13T12:54:00.418Z,101600.72
2022-10-13T12:56:31.371Z,101607.06
2022-10-13T12:58:58.034Z,101599.72
2022-10-13T13:01:30.067Z,101606.16
2022-10-13T13:03:58.045Z,101615.22
2022-10-13T13:06:30.542Z,101609.78
2022-10-13T13:09:12.251Z,101611.63
2022-10-13T13:11:39.071Z,101601.75
2022-10-13T13:14:21.756Z,101610.78
2022-10-13T13:17:08.859Z,101609.94
2022-10-13T13:19:35.871Z,101610.78
2022-10-13T13:22:03.877Z,101608.06
2022-10-13T13:24:39.817Z,101608.06
2022-10-13T13:27:27.119Z,101603.44
2022-10-13T13:29:54.818Z,101600.72
2022-10-13T13:32:22.135Z,101610.63
2022-10-13T13:34:48.705Z,101606.03
2022-10-13T13:37:24.966Z,101601.41
2022-10-13T13:39:51.824Z,101604.31
2022-10-13T13:42:18.225Z,101607.91
2022-10-13T13:44:44.615Z,101607.06
2022-10-13T13:47:18.814Z,101609.59
2022-10-13T13:49:45.741Z,101599.88
2022-10-13T13:52:12.101Z,101608.91
2022-10-13T13:54:38.907Z,101612.50
2022-10-13T13:57:05.324Z,101607.06
2022-10-13T13:59:31.701Z,101606.88
2022-10-13T14:01:58.185Z,101606.03
2022-10-13T14:04:24.962Z,101605.19
2022-10-13T14:06:51.481Z,101596.16
2022-10-13T14:09:18.202Z,101594.28
2022-10-13T14:11:44.634Z,101582.34
2022-10-13T14:14:11.055Z,101587.78
2022-10-13T14:16:37.413Z,101581.31
2022-10-13T14:19:03.896Z,101564.13
2022-10-13T14:21:30.264Z,101554.25
2022-10-13T14:23:56.592Z,101555.09
2022-10-13T14:26:23.792Z,101555.09
2022-10-13T14:28:50.153Z,101547.94
2022-10-13T14:31:16.546Z,101545.03
2022-10-13T14:33:43.007Z,101550.66
2022-10-13T14:36:09.482Z,101549.63
2022-10-13T14:38:36.018Z,101561.38
2022-10-13T14:41:03.681Z,101562.41
2022-10-13T14:43:30.304Z,101560.53
2022-10-13T14:46:00.587Z,101553.38
2022-10-13T14:48:26.969Z,101557.81
2022-10-13T14:50:53.410Z,101550.66
2022-10-13T14:53:19.752Z,101547.09
2022-10-13T14:55:46.105Z,101547.94
2022-10-13T14:58:12.534Z,101543.34
2022-10-13T15:00:38.869Z,101545.22
2022-10-13T15:03:05.320Z,101547.94
2022-10-13T15:05:31.693Z,101548.78
2022-10-13T15:07:58.194Z,101537.03
2022-10-13T15:10:24.711Z,101538.91
2022-10-13T15:12:51.080Z,101538.91
2022-10-13T15:15:17.511Z,101535.16
2022-10-13T15:17:43.897Z,101537.88
2022-10-13T15:20:10.588Z,101536.00
2022-10-13T15:22:37.392Z,101538.91
2022-10-13T15:25:07.620Z,101542.50
2022-10-13T15:27:38.079Z,101536.19
2022-10-13T15:30:08.458Z,101536.19
2022-10-13T15:32:34.919Z,101535.16
2022-10-13T15:35:01.286Z,101528.84
2022-10-13T15:37:27.648Z,101532.44
2022-10-13T15:39:57.375Z,101537.03
2022-10-13T15:42:24.187Z,101537.03
2022-10-13T15:45:08.958Z,101531.59
2022-10-13T15:47:36.579Z,101531.59
2022-10-13T15:50:03.290Z,101529.84
2022-10-13T15:52:33.834Z,101532.59
2022-10-13T15:55:01.559Z,101526.13
2022-10-13T15:57:27.991Z,101528.00
2022-10-13T15:59:54.453Z,101531.59
2022-10-13T16:02:21.077Z,101536.19
2022-10-13T16:04:47.560Z,101529.72
2022-10-13T16:07:13.949Z,101532.44
2022-10-13T16:09:40.315Z,101534.31
2022-10-13T16:12:06.780Z,101535.31
2022-10-13T16:14:33.147Z,101535.16
2022-10-13T16:16:59.515Z,101537.88
2022-10-13T16:19:25.929Z,101538.91
2022-10-13T16:21:52.356Z,101536.19
2022-10-13T16:24:18.748Z,101535.16
2022-10-13T16:26:45.153Z,101538.91
2022-10-13T16:29:11.594Z,101552.53
2022-10-13T16:31:37.951Z,101550.66
2022-10-13T16:34:04.369Z,101542.50
2022-10-13T16:36:31.252Z,101543.34
2022-10-13T16:38:57.766Z,101547.09
2022-10-13T16:41:24.125Z,101546.22
2022-10-13T16:43:50.472Z,101540.75
2022-10-13T16:46:18.005Z,101532.75
2022-10-13T16:48:45.268Z,101539.91
2022-10-13T16:51:13.179Z,101537.19
2022-10-13T16:53:39.585Z,101533.63
2022-10-13T16:56:06.881Z,101532.59
2022-10-13T16:58:33.350Z,101537.19
2022-10-13T17:01:08.673Z,101538.03
2022-10-13T17:03:35.857Z,101531.75
2022-10-13T17:06:02.210Z,101531.75
2022-10-13T17:08:29.494Z,101524.94
2022-10-13T17:10:58.212Z,101527.31
2022-10-13T17:13:24.787Z,101521.88
2022-10-13T17:15:55.249Z,101513.03
2022-10-13T17:18:22.102Z,101517.25
2022-10-13T17:20:58.700Z,101522.56
2022-10-13T17:23:25.717Z,101520.84
2022-10-13T17:25:52.410Z,101522.56
2022-10-13T17:28:19.188Z,101522.72
2022-10-13T17:30:45.720Z,101525.44
2022-10-13T17:33:15.307Z,101517.25
2022-10-13T17:35:41.689Z,101524.41
2022-10-13T17:38:08.027Z,101529.00
2022-10-13T17:40:35.405Z,101528.34
2022-10-13T17:43:02.782Z,101527.13
2022-10-13T17:45:29.938Z,101522.72
2022-10-13T17:47:58.730Z,101526.28
2022-10-13T17:50:26.084Z,101529.00
2022-10-13T17:52:52.529Z,101524.59
2022-10-13T17:55:19.038Z,101529.00
2022-10-13T17:57:45.442Z,101527.13
2022-10-13T18:00:12.199Z,101522.72
2022-10-13T18:02:38.543Z,101525.44
2022-10-13T18:05:05.080Z,101520.84
2022-10-13T18:07:31.463Z,101521.69
2022-10-13T18:09:57.855Z,101524.41
2022-10-13T18:12:24.266Z,101523.56
2022-10-13T18:14:50.657Z,101515.38
2022-10-13T18:17:17.068Z,101519.13
2022-10-13T18:19:43.805Z,101517.25
2022-10-13T18:22:10.227Z,101524.59
2022-10-13T18:24:36.630Z,101521.88
2022-10-13T18:27:03.029Z,101513.69
2022-10-13T18:29:29.415Z,101519.13
2022-10-13T18:31:58.687Z,101510.44
2022-10-13T18:34:25.216Z,101516.41
2022-10-13T18:36:54.921Z,101511.16
2022-10-13T18:39:25.759Z,101516.41
2022-10-13T18:41:53.133Z,101512.00
2022-10-13T18:44:20.368Z,101508.25
2022-10-13T18:46:49.071Z,101514.72
2022-10-13T18:49:18.122Z,101512.84
2022-10-13T18:51:44.553Z,101503.63
2022-10-13T18:54:11.502Z,101501.94
2022-10-13T18:56:38.015Z,101497.53
2022-10-13T18:59:05.225Z,101508.25
2022-10-13T19:01:32.670Z,101501.09
2022-10-13T19:03:59.455Z,101507.38
2022-10-13T19:06:27.369Z,101504.66
2022-10-13T19:08:58.245Z,101493.75
2022-10-13T19:11:24.928Z,101497.34
2022-10-13T19:13:51.367Z,101501.09
2022-10-13T19:16:19.149Z,101509.25
2022-10-13T19:18:46.327Z,101511.16
2022-10-13T19:21:13.151Z,101513.03
2022-10-13T19:23:40.083Z,101518.47
2022-10-13T19:26:11.243Z,101511.16
2022-10-13T19:28:41.407Z,101514.88
2022-10-13T19:31:11.348Z,101509.41
2022-10-13T19:33:43.557Z,101513.03
2022-10-13T19:36:11.726Z,101511.16
2022-10-13T19:38:38.258Z,101509.41
2022-10-13T19:41:05.912Z,101512.00
2022-10-13T19:43:32.998Z,101508.41
2022-10-13T19:45:59.964Z,101502.13
2022-10-13T19:48:26.895Z,101501.25
2022-10-13T19:50:53.381Z,101513.03
2022-10-13T19:53:19.756Z,101503.13
2022-10-13T19:55:47.152Z,101500.41
2022-10-13T19:58:15.925Z,101503.13
2022-10-13T20:00:43.317Z,101502.13
2022-10-13T20:03:09.716Z,101497.53
2022-10-13T20:05:37.782Z,101499.41
2022-10-13T20:08:04.722Z,101493.06
2022-10-13T20:10:31.120Z,101504.84
2022-10-13T20:12:57.460Z,101503.13
2022-10-13T20:15:23.830Z,101511.28
2022-10-13T20:17:50.235Z,101503.31
2022-10-13T20:20:20.135Z,101504.16
2022-10-13T20:22:48.775Z,101510.44
2022-10-13T20:25:19.490Z,101498.69
2022-10-13T20:27:46.326Z,101493.94
2022-10-13T20:30:12.828Z,101489.69
2022-10-13T20:32:39.157Z,101497.66
2022-10-13T20:35:05.788Z,101498.69
2022-10-13T20:37:32.704Z,101495.97
2022-10-13T20:39:59.048Z,101503.13
2022-10-13T20:42:25.421Z,101494.09
2022-10-13T20:44:52.225Z,101494.09
2022-10-13T20:47:18.890Z,101494.28
2022-10-13T20:49:45.552Z,101495.97
2022-10-13T20:52:11.890Z,101489.69
2022-10-13T20:54:38.285Z,101498.69
2022-10-13T20:57:04.716Z,101487.81
2022-10-13T20:59:31.081Z,101488.66
2022-10-13T21:01:57.446Z,101480.31
2022-10-13T21:04:23.816Z,101487.81
2022-10-13T21:06:51.898Z,101486.94
2022-10-13T21:09:18.365Z,101487.81
2022-10-13T21:11:44.710Z,101495.13
2022-10-13T21:14:11.194Z,101488.66
2022-10-13T21:16:38.129Z,101485.06
2022-10-13T21:19:04.662Z,101493.25
2022-10-13T21:21:32.564Z,101493.25
2022-10-13T21:24:00.216Z,101492.41
2022-10-13T21:26:27.522Z,101485.25
2022-10-13T21:28:53.993Z,101483.38
2022-10-13T21:31:21.570Z,101478.78
2022-10-13T21:33:48.348Z,101481.50
2022-10-13T21:36:14.681Z,101490.53
2022-10-13T21:38:41.890Z,101480.66
2022-10-13T21:41:09.034Z,101483.38
2022-10-13T21:43:35.739Z,101477.94
2022-10-13T21:46:15.929Z,101480.66
2022-10-13T21:48:43.277Z,101484.22
2022-10-13T21:51:19.694Z,101486.09
2022-10-13T21:53:50.318Z,101479.81
2022-10-13T21:56:16.737Z,101479.81
2022-10-13T21:58:43.083Z,101483.53
2022-10-13T22:01:09.651Z,101480.66
2022-10-13T22:03:36.125Z,101488.84
2022-10-13T22:06:07.054Z,101487.13
2022-10-13T22:08:38.630Z,101483.38
2022-10-13T22:11:05.635Z,101482.53
2022-10-13T22:13:31.986Z,101484.41
2022-10-13T22:16:02.594Z,101486.94
2022-10-13T22:18:28.933Z,101484.41
2022-10-13T22:20:55.304Z,101488.97
2022-10-13T22:23:21.639Z,101484.41
2022-10-13T22:25:47.972Z,101482.53
2022-10-13T22:28:14.363Z,101474.50
2022-10-13T22:30:40.721Z,101477.09
2022-10-13T22:33:07.078Z,101477.94
2022-10-13T22:35:34.308Z,101478.06
2022-10-13T22:38:00.752Z,101474.50
2022-10-13T22:40:27.151Z,101478.06
2022-10-13T22:42:53.488Z,101476.25
2022-10-13T22:45:19.892Z,101478.97
2022-10-13T22:47:48.485Z,101475.34
2022-10-13T22:50:15.036Z,101477.09
2022-10-13T22:52:41.377Z,101469.06
2022-10-13T22:55:07.977Z,101477.09
2022-10-13T22:57:34.333Z,101476.25
2022-10-13T23:00:00.732Z,101477.22
2022-10-13T23:02:27.128Z,101468.22
2022-10-13T23:04:53.493Z,101477.22
2022-10-13T23:07:20.104Z,101474.34
2022-10-13T23:09:46.808Z,101476.25
2022-10-13T23:12:13.192Z,101464.47
2022-10-13T23:14:39.557Z,101458.16
2022-10-13T23:17:05.917Z,101464.47
2022-10-13T23:19:32.242Z,101472.63
2022-10-13T23:21:58.578Z,101463.59
2022-10-13T23:24:25.048Z,101469.06
2022-10-13T23:26:51.521Z,101461.72
2022-10-13T23:29:17.854Z,101461.72
2022-10-13T23:31:44.234Z,101457.16
2022-10-13T23:34:10.589Z,101460.72
2022-10-13T23:36:36.919Z,101455.28
2022-10-13T23:39:05.292Z,101459.00
2022-10-13T23:41:31.819Z,101448.09
2022-10-13T23:43:58.454Z,101447.25
2022-10-13T23:46:24.996Z,101444.53
2022-10-13T23:48:51.485Z,101442.66
2022-10-13T23:51:19.663Z,101437.19
2022-10-13T23:53:46.594Z,101434.47
2022-10-13T23:56:13.402Z,101438.09
2022-10-13T23:58:40.990Z,101440.81
